Time;durP1;ratioP1;P1;durP2;ratioP2;P2;SDS_P1;SDS_P2;PMS_P1;PMS_P2;Temp;Humidity;BMP_temperature;BMP_pressure;BME280_temperature;BME280_humidity;BME280_pressure;Samples;Min_cycle;Max_cycle;Signal;HPM_P1;HPM_P2
2022/08/13 00:00:34;;;;;;;7.10;6.50;;;;;;;22.98;69.41;94628.44;5054599;28;20802;-79
2022/08/13 00:03:02;;;;;;;6.83;6.23;;;;;;;22.96;69.20;94621.66;5054884;28;20442;-77
2022/08/13 00:05:30;;;;;;;7.10;6.37;;;;;;;22.93;69.36;94616.75;5054627;28;20477;-79
2022/08/13 00:07:57;;;;;;;7.97;7.27;;;;;;;22.90;70.21;94607.28;5054488;28;20497;-80
2022/08/13 00:10:26;;;;;;;8.33;7.60;;;;;;;22.99;70.24;94610.53;5054210;28;20456;-79
2022/08/13 00:12:57;;;;;;;7.90;6.60;;;;;;;22.95;69.90;94614.66;5020061;28;20844;-79
2022/08/13 00:15:29;;;;;;;8.03;7.30;;;;;;;22.96;70.06;94608.28;5054517;28;20533;-79
2022/08/13 00:17:58;;;;;;;8.70;7.77;;;;;;;22.94;69.52;94608.50;5035722;28;20994;-80
2022/08/13 00:20:28;;;;;;;7.10;6.50;;;;;;;22.95;69.79;94609.31;5054335;28;20912;-78
2022/08/13 00:22:58;;;;;;;7.57;6.93;;;;;;;22.95;70.12;94604.78;5054215;28;20822;-79
2022/08/13 00:25:25;;;;;;;8.77;6.70;;;;;;;23.01;70.11;94606.59;5053979;28;20448;-79
2022/08/13 00:27:57;;;;;;;7.83;7.13;;;;;;;23.05;69.89;94604.31;5054398;28;20995;-79
2022/08/13 00:30:33;;;;;;;7.57;6.87;;;;;;;23.08;70.11;94603.88;5054148;28;20445;-79
2022/08/13 00:33:01;;;;;;;7.77;6.97;;;;;;;23.10;69.89;94591.09;5054025;28;20445;-79
2022/08/13 00:35:29;;;;;;;6.60;6.00;;;;;;;23.11;69.50;94598.09;5053026;28;20449;-79
2022/08/13 00:37:57;;;;;;;7.23;6.47;;;;;;;23.13;69.93;94591.53;5018778;28;20504;-79
2022/08/13 00:40:25;;;;;;;8.33;7.07;;;;;;;23.16;69.52;94595.63;5053838;28;20964;-79
2022/08/13 00:42:52;;;;;;;9.20;6.60;;;;;;;23.10;69.64;94591.09;5054178;28;21131;-79
2022/08/13 00:45:20;;;;;;;8.23;7.00;;;;;;;23.06;69.91;94590.72;5053665;28;20937;-78
2022/08/13 00:50:32;;;;;;;7.00;6.40;;;;;;;23.16;70.00;94595.63;5053728;28;20433;-79
2022/08/13 00:53:02;;;;;;;7.90;7.20;;;;;;;23.13;70.02;94586.16;5053724;28;20449;-79
2022/08/13 00:55:29;;;;;;;7.80;7.30;;;;;;;23.18;69.70;94590.88;5053582;28;20445;-79
2022/08/13 00:57:56;;;;;;;7.20;6.60;;;;;;;23.19;69.91;94589.84;5018234;28;20862;-80
2022/08/13 01:00:25;;;;;;;8.87;7.87;;;;;;;23.21;69.83;94595.78;5053496;28;20450;-79
2022/08/13 01:02:54;;;;;;;7.33;6.73;;;;;;;23.24;70.23;94583.84;5053386;28;20445;-79
2022/08/13 01:05:23;;;;;;;8.07;7.27;;;;;;;23.23;70.44;94591.03;5053558;28;20938;-80
2022/08/13 01:07:50;;;;;;;7.37;6.57;;;;;;;23.25;70.12;94583.63;5053637;28;20480;-79
2022/08/13 01:10:20;;;;;;;8.03;7.30;;;;;;;23.20;70.08;94577.28;5053286;28;20453;-79
2022/08/13 01:12:51;;;;;;;6.90;6.40;;;;;;;23.22;69.12;94581.38;5053965;28;20453;-79
2022/08/13 01:15:19;;;;;;;8.13;6.90;;;;;;;23.21;69.75;94582.41;5053656;28;20915;-79
2022/08/13 01:17:53;;;;;;;7.33;6.63;;;;;;;23.18;69.93;94582.84;5053320;28;20457;-78
2022/08/13 01:20:21;;;;;;;6.67;6.07;;;;;;;23.20;70.13;94586.13;5053185;28;20438;-79
2022/08/13 01:22:51;;;;;;;8.43;7.53;;;;;;;23.18;70.26;94588.19;5053415;28;20453;-79
2022/08/13 01:25:19;;;;;;;8.57;7.87;;;;;;;23.15;70.32;94589.44;5052975;28;20448;-79
2022/08/13 01:27:46;;;;;;;7.30;6.70;;;;;;;23.16;70.19;94574.22;5052928;28;20997;-79
2022/08/13 01:30:16;;;;;;;6.97;6.30;;;;;;;23.16;70.08;94582.25;5053174;28;20446;-79
2022/08/13 01:32:44;;;;;;;7.53;6.93;;;;;;;23.16;70.11;94582.25;5052904;28;20541;-79
2022/08/13 01:35:11;;;;;;;7.90;7.23;;;;;;;23.15;70.08;94577.94;5052901;28;20450;-79
2022/08/13 01:37:38;;;;;;;7.13;6.47;;;;;;;23.12;70.26;94575.66;5052663;28;20450;-79
2022/08/13 01:40:08;;;;;;;10.53;6.70;;;;;;;23.10;70.06;94577.72;5052869;28;20503;-79
2022/08/13 01:42:41;;;;;;;8.10;7.37;;;;;;;23.03;70.15;94571.59;5052693;28;20442;-79
2022/08/13 01:45:10;;;;;;;9.37;7.30;;;;;;;22.95;70.40;94570.00;5052706;28;20490;-79
2022/08/13 01:50:31;;;;;;;8.17;7.33;;;;;;;22.88;70.70;94568.41;5052638;28;20429;-79
2022/08/13 01:53:01;;;;;;;7.53;6.53;;;;;;;22.86;70.89;94560.59;5052287;28;20469;-79
2022/08/13 01:55:37;;;;;;;7.63;6.83;;;;;;;22.77;70.71;94557.28;5052755;28;20449;-78
2022/08/13 01:58:05;;;;;;;7.90;7.30;;;;;;;22.73;70.78;94557.91;5052629;28;20509;-79
2022/08/13 02:00:32;;;;;;;7.70;7.00;;;;;;;22.77;71.18;94562.63;5052274;28;20485;-78
2022/08/13 02:03:01;;;;;;;8.57;7.67;;;;;;;22.80;70.90;94554.16;5052248;28;20446;-79
2022/08/13 02:05:28;;;;;;;8.47;7.70;;;;;;;22.79;70.81;94552.53;5052134;28;20441;-79
2022/08/13 02:07:56;;;;;;;8.80;7.40;;;;;;;22.74;70.85;94549.69;5052096;28;20492;-79
2022/08/13 02:10:23;;;;;;;7.90;7.27;;;;;;;22.69;71.30;94551.34;5052385;28;20477;-79
2022/08/13 02:12:52;;;;;;;7.73;6.60;;;;;;;22.66;71.82;94552.59;5052095;28;20441;-79
2022/08/13 02:15:19;;;;;;;7.53;6.80;;;;;;;22.71;71.61;94551.97;5052143;28;20529;-80
2022/08/13 02:17:45;;;;;;;8.37;7.67;;;;;;;22.67;71.18;94548.91;5052140;28;20460;-80
2022/08/13 02:20:17;;;;;;;8.10;7.30;;;;;;;22.77;71.32;94559.94;5052269;28;20511;-79
2022/08/13 02:22:45;;;;;;;7.80;7.10;;;;;;;22.81;70.90;94552.34;5052260;28;20453;-79
2022/08/13 02:25:15;;;;;;;7.10;6.50;;;;;;;22.82;71.11;94560.16;5052168;28;20489;-79
2022/08/13 02:27:43;;;;;;;8.23;7.50;;;;;;;22.89;71.08;94562.00;5052103;28;20489;-79
2022/08/13 02:30:14;;;;;;;7.90;7.20;;;;;;;22.95;70.67;94556.63;5051784;28;20906;-78
2022/08/13 02:32:41;;;;;;;7.30;6.60;;;;;;;22.97;70.42;94554.53;5052361;28;20446;-79
2022/08/13 02:35:09;;;;;;;7.63;7.03;;;;;;;22.98;70.36;94552.69;5052014;28;20456;-79
2022/08/13 02:37:37;;;;;;;7.93;7.23;;;;;;;22.96;70.43;94552.09;5051986;28;20477;-79
2022/08/13 02:41:38;;;;;;;6.60;6.10;;;;;;;22.93;70.86;94552.50;5051885;28;20481;-79
2022/08/13 02:42:55;;;;;;;7.80;7.07;;;;;;;22.85;71.38;94551.72;5051760;28;21015;-79
2022/08/13 02:45:25;;;;;;;7.70;7.10;;;;;;;22.72;71.33;94551.75;5016512;28;20519;-79
2022/08/13 02:47:52;;;;;;;8.40;7.60;;;;;;;22.55;71.52;94545.22;5051821;28;20511;-80
2022/08/13 02:50:20;;;;;;;7.97;7.30;;;;;;;22.48;72.05;94555.97;5051823;28;20924;-79
2022/08/13 02:52:48;;;;;;;8.00;7.30;;;;;;;22.45;72.03;94547.53;5051768;28;20445;-79
2022/08/13 02:55:15;;;;;;;7.87;7.07;;;;;;;22.42;72.10;94550.63;5051787;28;20477;-79
2022/08/13 02:57:43;;;;;;;8.60;7.80;;;;;;;22.43;72.10;94558.44;5052917;28;20496;-79
2022/08/13 03:00:11;;;;;;;8.60;7.13;;;;;;;22.43;72.20;94546.94;5055661;28;20445;-79
2022/08/13 03:02:44;;;;;;;8.40;7.70;;;;;;;22.41;72.32;94539.13;5036935;28;20438;-79
2022/08/13 03:05:15;;;;;;;7.70;7.00;;;;;;;22.48;72.25;94553.28;5055767;28;20451;-79
2022/08/13 03:07:47;;;;;;;7.70;7.00;;;;;;;22.43;72.15;94545.09;5055481;28;20543;-79
2022/08/13 03:10:17;;;;;;;8.83;7.93;;;;;;;22.30;72.72;94541.66;5055718;28;20445;-79
2022/08/13 03:12:46;;;;;;;10.43;7.80;;;;;;;22.30;72.94;94550.47;5055429;28;21001;-80
2022/08/13 03:15:18;;;;;;;7.70;6.90;;;;;;;22.35;72.91;94555.19;5055360;28;20869;-79
2022/08/13 03:17:46;;;;;;;7.27;6.67;;;;;;;22.43;72.76;94557.63;5055407;28;20814;-79
2022/08/13 03:20:16;;;;;;;8.03;7.33;;;;;;;22.48;72.89;94550.59;5055388;28;20823;-79
2022/08/13 03:23:09;;;;;;;;;;;;;;;;;;;;;
2022/08/13 03:25:37;;;;;;;8.40;7.70;;;;;;;22.61;71.92;94557.78;5054941;28;20438;-79
2022/08/13 03:28:06;;;;;;;8.90;8.00;;;;;;;22.55;72.23;94561.28;5055081;28;21026;-79
2022/08/13 03:30:34;;;;;;;9.30;7.80;;;;;;;22.51;72.63;94565.41;5055265;28;20458;-79
2022/08/13 03:33:07;;;;;;;8.30;7.57;;;;;;;22.52;72.88;94561.69;5054942;28;20452;-79
2022/08/13 03:35:35;;;;;;;8.73;7.87;;;;;;;22.57;72.88;94567.25;5055191;28;20512;-79
2022/08/13 03:38:04;;;;;;;11.70;8.40;;;;;;;22.31;74.27;94570.84;5055208;28;20507;-80
2022/08/13 03:41:00;;;;;;;9.50;7.70;;;;;;;21.91;76.84;94568.19;5055250;28;20829;-78
2022/08/13 03:43:17;;;;;;;8.60;7.40;;;;;;;21.79;77.67;94566.38;5054830;28;20487;-79
2022/08/13 03:45:45;;;;;;;8.70;7.90;;;;;;;21.91;77.68;94572.72;5054851;28;20975;-79
2022/08/13 03:48:13;;;;;;;11.90;9.17;;;;;;;21.99;77.51;94566.34;5054789;28;20514;-79
2022/08/13 03:50:40;;;;;;;9.67;8.77;;;;;;;22.08;77.30;94571.28;5054736;28;20473;-79
2022/08/13 03:53:08;;;;;;;8.93;8.13;;;;;;;22.05;77.33;94577.06;5054797;28;20481;-79
2022/08/13 03:55:37;;;;;;;10.63;9.53;;;;;;;22.06;77.88;94577.88;5054689;28;20445;-79
2022/08/13 03:58:05;;;;;;;9.60;8.60;;;;;;;22.11;78.08;94575.41;5054569;28;20508;-79
2022/08/13 04:00:33;;;;;;;8.93;8.17;;;;;;;22.19;78.15;94578.66;5054441;28;20449;-78
2022/08/13 04:03:02;;;;;;;9.70;8.73;;;;;;;22.24;78.34;94578.03;5054609;28;20445;-79
2022/08/13 04:05:30;;;;;;;11.77;10.10;;;;;;;22.06;79.21;94572.53;5054698;28;20532;-80
2022/08/13 04:07:57;;;;;;;10.93;9.93;;;;;;;21.99;79.72;94569.03;5054174;28;20875;-79
2022/08/13 04:10:24;;;;;;;10.30;9.30;;;;;;;21.86;80.49;94576.00;5054501;28;20450;-78
2022/08/13 04:12:50;;;;;;;12.40;10.60;;;;;;;21.82;80.86;94574.78;5054313;28;20517;-78
2022/08/13 04:15:17;;;;;;;10.20;9.20;;;;;;;21.73;81.47;94573.38;5019349;28;20445;-79
2022/08/13 04:17:44;;;;;;;9.93;9.03;;;;;;;21.70;81.97;94572.97;5054345;28;20476;-79
2022/08/13 04:20:12;;;;;;;11.50;10.47;;;;;;;21.49;83.00;94580.13;5054317;28;20536;-79
2022/08/13 04:22:40;;;;;;;16.00;10.53;;;;;;;21.58;82.96;94573.56;5054084;28;20444;-79
2022/08/13 04:25:09;;;;;;;9.97;9.10;;;;;;;21.75;82.63;94570.50;5054167;28;20456;-79
2022/08/13 04:27:36;;;;;;;10.67;9.63;;;;;;;21.89;81.94;94577.44;5019566;28;20497;-79
2022/08/13 04:30:06;;;;;;;11.20;10.10;;;;;;;22.00;81.28;94584.03;5054564;28;20445;-79
2022/08/13 04:32:41;;;;;;;10.53;9.53;;;;;;;22.13;80.80;94581.34;5053869;28;20453;-78
2022/08/13 04:35:09;;;;;;;12.20;10.90;;;;;;;22.23;79.79;94574.53;5054530;28;20479;-79
2022/08/13 04:37:37;;;;;;;10.70;9.60;;;;;;;22.37;79.49;94579.88;5035118;28;20433;-79
2022/08/13 04:40:10;;;;;;;10.67;9.70;;;;;;;22.44;79.26;94575.31;5054012;28;21023;-79
2022/08/13 04:42:48;;;;;;;15.23;11.20;;;;;;;22.44;78.81;94572.63;5053902;28;20449;-79
2022/08/13 04:45:25;;;;;;;12.17;10.63;;;;;;;22.42;78.49;94572.03;5053753;28;20933;-79
2022/08/13 04:47:58;;;;;;;10.80;9.70;;;;;;;22.45;78.53;94571.59;5053446;28;20489;-80
2022/08/13 04:50:25;;;;;;;12.00;10.77;;;;;;;22.53;78.51;94574.03;5054033;28;20449;-79
2022/08/13 04:52:52;;;;;;;12.23;10.77;;;;;;;22.60;78.21;94569.50;5053852;28;20924;-79
2022/08/13 04:55:20;;;;;;;16.80;10.70;;;;;;;22.65;77.75;94572.38;5018537;28;20963;-79
2022/08/13 04:57:48;;;;;;;12.13;9.97;;;;;;;22.67;77.72;94572.97;5054010;28;20755;-79
2022/08/13 05:00:15;;;;;;;19.30;10.30;;;;;;;22.71;77.60;94571.50;5053545;28;20452;-79
2022/08/13 05:02:43;;;;;;;12.37;10.90;;;;;;;22.73;78.17;94573.97;5053839;28;20433;-78
2022/08/13 05:05:12;;;;;;;11.40;10.00;;;;;;;22.74;77.75;94573.75;5053405;28;20983;-79
2022/08/13 05:07:39;;;;;;;13.50;9.73;;;;;;;22.77;77.71;94576.00;5053405;28;20489;-78
2022/08/13 05:10:06;;;;;;;10.57;9.23;;;;;;;22.80;77.51;94577.44;5053647;28;20449;-79
2022/08/13 05:12:38;;;;;;;10.63;9.63;;;;;;;22.87;76.56;94570.25;5034516;28;20446;-80
2022/08/13 05:15:06;;;;;;;13.70;8.00;;;;;;;22.90;76.59;94569.81;5053532;28;20530;-79
2022/08/13 05:17:33;;;;;;;9.13;8.33;;;;;;;22.95;75.65;94571.84;5053605;28;20477;-79
2022/08/13 05:20:00;;;;;;;8.90;7.70;;;;;;;23.01;74.01;94573.66;5052841;28;20528;-79
2022/08/13 05:22:28;;;;;;;8.97;7.40;;;;;;;23.03;73.76;94575.09;5053284;28;20448;-78
2022/08/13 05:24:55;;;;;;;12.43;9.30;;;;;;;23.02;73.63;94572.63;5018160;28;20488;-78
2022/08/13 05:27:21;;;;;;;8.97;8.17;;;;;;;23.02;73.74;94569.94;5052837;28;20545;-79
2022/08/13 05:29:50;;;;;;;10.30;7.47;;;;;;;23.02;74.09;94569.94;5052981;28;20437;-79
2022/08/13 05:32:17;;;;;;;11.70;8.50;;;;;;;23.04;73.92;94573.22;5052842;28;20446;-79
2022/08/13 05:34:44;;;;;;;10.63;9.63;;;;;;;23.01;74.19;94566.44;5053016;28;20472;-78
2022/08/13 05:37:16;;;;;;;10.90;9.80;;;;;;;22.93;75.56;94565.91;5052882;28;20450;-79
2022/08/13 05:39:43;;;;;;;15.17;9.87;;;;;;;22.86;76.57;94571.28;5052715;28;20448;-79
2022/08/13 05:42:10;;;;;;;11.70;9.73;;;;;;;22.53;77.89;94568.69;5052834;28;20552;-79
2022/08/13 05:44:37;;;;;;;14.00;10.13;;;;;;;22.60;78.10;94580.22;5052669;28;20450;-78
2022/08/13 05:47:05;;;;;;;10.53;9.40;;;;;;;22.45;78.69;94571.59;5052601;28;20442;-79
2022/08/13 05:49:33;;;;;;;10.43;9.53;;;;;;;22.42;79.02;94586.22;5052842;28;20493;-79
2022/08/13 05:52:01;;;;;;;12.37;11.17;;;;;;;22.29;80.04;94585.44;5052632;28;20450;-78
2022/08/13 05:54:30;;;;;;;10.73;9.83;;;;;;;22.17;80.24;94580.72;5052578;28;20456;-78
2022/08/13 05:56:57;;;;;;;10.70;9.70;;;;;;;21.99;81.24;94575.19;5052206;28;20453;-78
2022/08/13 06:04:55;;;;;;;11.43;10.27;;;;;;;22.45;78.87;94584.97;5052411;28;20543;-78
2022/08/13 06:07:22;;;;;;;12.40;9.80;;;;;;;22.56;77.42;94582.50;5052455;28;20445;-79
2022/08/13 06:09:49;;;;;;;10.30;9.37;;;;;;;22.64;74.54;94580.59;5052582;28;21011;-78
2022/08/13 06:12:16;;;;;;;10.43;9.53;;;;;;;22.73;74.35;94579.31;5052134;28;20454;-78
2022/08/13 06:14:43;;;;;;;10.13;9.20;;;;;;;22.82;74.80;94578.88;5052540;28;20434;-79
2022/08/13 06:17:13;;;;;;;11.40;8.37;;;;;;;22.94;74.91;94588.94;5052213;28;20446;-78
2022/08/13 06:19:43;;;;;;;11.03;9.57;;;;;;;23.06;74.19;94576.50;5052090;28;20479;-78
2022/08/13 06:22:15;;;;;;;12.07;9.93;;;;;;;23.09;74.66;94574.22;5052061;28;20473;-79
2022/08/13 06:24:45;;;;;;;11.50;8.97;;;;;;;23.20;74.84;94577.28;5052186;28;20446;-78
2022/08/13 06:27:11;;;;;;;10.90;9.90;;;;;;;23.26;74.63;94569.19;5050752;28;20453;-79
2022/08/13 06:29:41;;;;;;;9.60;8.70;;;;;;;23.35;74.24;94575.91;5031494;28;20499;-79
2022/08/13 06:32:11;;;;;;;14.60;9.10;;;;;;;23.43;73.07;94580.22;5050553;28;20438;-80
2022/08/13 06:34:41;;;;;;;9.13;8.33;;;;;;;23.43;72.17;94570.31;5052013;28;20513;-77
2022/08/13 06:37:08;;;;;;;10.37;9.10;;;;;;;23.52;71.43;94580.75;5051760;28;20442;-79
2022/08/13 06:39:37;;;;;;;12.10;10.00;;;;;;;23.57;71.77;94578.28;5051912;28;20438;-78
2022/08/13 06:42:07;;;;;;;9.30;8.50;;;;;;;23.63;70.96;94574.72;5051808;28;20449;-79
2022/08/13 06:44:35;;;;;;;9.87;8.97;;;;;;;23.59;69.93;94563.63;5052324;28;20925;-78
2022/08/13 06:47:03;;;;;;;21.03;14.40;;;;;;;23.69;71.29;94577.34;5052249;28;20453;-78
2022/08/13 06:49:32;;;;;;;15.47;11.60;;;;;;;23.67;71.82;94578.59;5051823;28;20481;-79
2022/08/13 06:52:00;;;;;;;11.03;9.27;;;;;;;23.63;71.27;94569.38;5051736;28;20457;-79
2022/08/13 06:54:27;;;;;;;13.73;9.57;;;;;;;23.68;72.06;94574.88;5051649;28;20819;-78
2022/08/13 06:56:54;;;;;;;12.43;8.73;;;;;;;23.60;69.36;94575.16;5051970;28;20858;-78
2022/08/13 06:59:24;;;;;;;12.27;9.10;;;;;;;23.49;69.14;94572.13;5052124;28;20489;-78
2022/08/13 07:01:58;;;;;;;9.97;9.00;;;;;;;23.54;69.70;94578.69;5051695;28;20480;-78
2022/08/13 07:04:25;;;;;;;9.80;7.97;;;;;;;23.62;70.03;94578.44;5051698;28;20454;-78
2022/08/13 07:06:53;;;;;;;10.30;7.70;;;;;;;23.68;69.86;94573.03;5051833;28;20450;-79
2022/08/13 07:09:22;;;;;;;9.13;8.20;;;;;;;23.79;69.85;94579.56;5051738;28;20507;-78
2022/08/13 07:11:50;;;;;;;12.33;7.63;;;;;;;23.77;67.97;94571.72;5051979;28;20456;-77
2022/08/13 07:14:17;;;;;;;15.13;9.20;;;;;;;23.84;68.13;94582.38;5032899;28;20438;-79
2022/08/13 07:16:45;;;;;;;10.03;9.10;;;;;;;23.90;68.74;94586.03;5051619;28;20456;-79
2022/08/13 07:19:13;;;;;;;10.50;9.50;;;;;;;23.94;68.51;94596.09;5051595;28;20936;-78
2022/08/13 07:21:42;;;;;;;17.87;10.70;;;;;;;23.94;68.73;94585.38;5051315;28;20453;-78
2022/08/13 07:24:10;;;;;;;10.67;9.63;;;;;;;23.83;67.01;94583.44;5051633;28;20502;-79
2022/08/13 07:26:39;;;;;;;12.13;8.97;;;;;;;23.84;66.97;94582.38;5051553;28;20496;-78
2022/08/13 07:29:07;;;;;;;10.10;9.10;;;;;;;24.03;66.95;94585.94;5051257;28;20488;-78
2022/08/13 07:31:39;;;;;;;8.90;8.10;;;;;;;24.19;66.58;94587.22;5051390;28;20532;-79
2022/08/13 07:34:07;;;;;;;11.77;9.67;;;;;;;24.14;66.60;94581.72;5032536;28;20793;-79
2022/08/13 07:36:38;;;;;;;14.40;9.63;;;;;;;24.13;66.93;94588.94;5051153;28;20442;-77
2022/08/13 07:39:09;;;;;;;10.47;9.30;;;;;;;24.20;67.12;94591.53;5051396;28;20964;-79
2022/08/13 07:41:41;;;;;;;12.57;10.30;;;;;;;24.24;66.10;94584.69;5051579;28;20504;-79
2022/08/13 07:44:12;;;;;;;10.20;9.13;;;;;;;24.29;nan;94576.84;5053717;28;20449;-78
2022/08/13 07:46:44;;;;;;;15.20;9.47;;;;;;;24.36;66.85;94578.41;5054905;28;20515;-78
2022/08/13 07:49:12;;;;;;;11.43;10.33;;;;;;;24.37;66.80;94584.59;5054726;28;20473;-78
2022/08/13 07:51:40;;;;;;;13.17;10.37;;;;;;;24.39;67.41;94583.34;5054968;28;20445;-78
2022/08/13 07:54:08;;;;;;;13.10;10.70;;;;;;;24.48;68.29;94583.84;5054661;28;20449;-78
2022/08/13 07:56:35;;;;;;;20.27;15.67;;;;;;;24.60;69.27;94582.09;5054878;28;20818;-79
2022/08/13 07:59:06;;;;;;;16.77;15.07;;;;;;;24.64;68.26;94577.09;5054486;28;20479;-79
2022/08/13 08:01:43;;;;;;;20.83;15.70;;;;;;;24.65;68.16;94579.53;5054880;28;20441;-78
2022/08/13 08:04:12;;;;;;;15.53;14.10;;;;;;;24.69;70.36;94579.91;5054445;28;20932;-80
2022/08/13 08:06:40;;;;;;;20.07;16.17;;;;;;;24.64;69.18;94582.44;5054451;28;20478;-78
2022/08/13 08:09:08;;;;;;;18.60;15.80;;;;;;;24.69;69.50;94567.31;5054535;28;20488;-79
2022/08/13 08:14:30;;;;;;;23.43;17.30;;;;;;;24.64;69.45;94577.91;4992985;28;20862;-78
2022/08/13 08:16:59;;;;;;;18.50;16.60;;;;;;;24.53;70.47;94577.81;4992701;28;20447;-79
2022/08/13 08:19:27;;;;;;;23.03;16.90;;;;;;;24.38;69.28;94572.84;4992804;28;20448;-78
2022/08/13 08:21:56;;;;;;;17.33;14.60;;;;;;;24.39;68.86;94571.78;4992594;28;21029;-79
2022/08/13 08:24:24;;;;;;;18.50;16.70;;;;;;;24.50;67.75;94575.59;4992821;28;20471;-79
2022/08/13 08:26:53;;;;;;;17.20;15.23;;;;;;;24.51;68.08;94578.03;4992443;28;20459;-78
2022/08/13 08:29:20;;;;;;;22.00;16.27;;;;;;;24.50;68.06;94573.72;4992554;28;20499;-79
2022/08/13 08:31:50;;;;;;;18.30;15.50;;;;;;;24.37;68.32;94573.88;4992744;28;20544;-79
2022/08/13 08:34:18;;;;;;;18.83;15.03;;;;;;;24.38;68.07;94578.19;4992626;28;20518;-79
2022/08/13 08:36:45;;;;;;;15.97;14.37;;;;;;;24.45;68.78;94570.06;4960020;28;20507;-79
2022/08/13 08:44:45;;;;;;;16.27;13.30;;;;;;;24.33;69.29;94567.31;4992366;28;20957;-79
2022/08/13 08:47:13;;;;;;;14.77;13.23;;;;;;;24.08;67.85;94553.94;4992273;28;21003;-79
2022/08/13 08:49:43;;;;;;;16.50;11.73;;;;;;;24.16;68.21;94559.00;5007087;28;20481;-79
2022/08/13 08:52:10;;;;;;;15.53;13.73;;;;;;;24.20;68.08;94554.81;5019485;28;20450;-79
2022/08/13 08:54:39;;;;;;;13.60;12.20;;;;;;;24.13;67.93;94548.72;5053226;28;20477;-79
2022/08/13 08:57:07;;;;;;;14.40;11.50;;;;;;;24.18;67.47;94556.91;5053231;28;20438;-77
2022/08/13 08:59:39;;;;;;;14.60;12.20;;;;;;;24.17;67.03;94554.44;5053908;28;20453;-79
2022/08/13 09:02:19;;;;;;;11.67;10.47;;;;;;;24.20;67.09;94554.81;5053379;28;20451;-79
2022/08/13 09:04:54;;;;;;;12.13;10.70;;;;;;;24.27;67.08;94558.25;5053544;28;20441;-79
2022/08/13 09:07:24;;;;;;;13.27;11.97;;;;;;;24.26;66.47;94561.16;5053677;28;20442;-78
2022/08/13 09:09:55;;;;;;;16.83;11.53;;;;;;;24.42;67.44;94557.94;5053247;28;20488;-78
2022/08/13 09:12:25;;;;;;;14.10;11.93;;;;;;;24.42;65.29;94563.28;5053289;28;20465;-79
2022/08/13 09:14:53;;;;;;;13.43;10.70;;;;;;;24.39;65.42;94555.69;5053306;28;20457;-78
2022/08/13 09:17:21;;;;;;;15.07;11.50;;;;;;;24.35;65.58;94562.56;5053084;28;20449;-78
2022/08/13 09:19:48;;;;;;;12.50;10.63;;;;;;;24.48;65.74;94561.56;5053456;28;20579;-78
2022/08/13 09:22:19;;;;;;;15.77;10.10;;;;;;;24.56;66.39;94547.84;5053766;28;20454;-79
2022/08/13 09:24:47;;;;;;;13.17;11.00;;;;;;;24.61;64.93;94551.53;4969494;28;20453;-79
2022/08/13 09:27:17;;;;;;;14.97;12.47;;;;;;;24.61;64.92;94556.88;5053060;28;20450;-79
2022/08/13 09:29:45;;;;;;;13.03;11.30;;;;;;;24.53;64.78;94548.31;5053232;28;20482;-79
2022/08/13 09:32:15;;;;;;;12.63;11.43;;;;;;;24.57;64.86;94554.84;5052912;28;20500;-79
2022/08/13 09:34:44;;;;;;;12.30;10.90;;;;;;;24.70;65.18;94552.03;5053111;28;20438;-79
2022/08/13 09:37:12;;;;;;;15.33;12.13;;;;;;;24.82;64.63;94552.91;5052867;28;20941;-79
2022/08/13 09:39:46;;;;;;;16.10;12.93;;;;;;;25.00;64.28;94549.41;5052972;28;20476;-78
2022/08/13 09:42:20;;;;;;;12.27;10.93;;;;;;;25.22;62.70;94547.84;5052978;28;20456;-79
2022/08/13 09:44:47;;;;;;;12.80;11.50;;;;;;;25.48;62.35;94556.56;5052960;28;20445;-79
2022/08/13 09:47:14;;;;;;;18.20;11.57;;;;;;;25.75;61.85;94546.25;5052537;28;20453;-80
2022/08/13 09:49:41;;;;;;;10.00;9.10;;;;;;;25.85;60.09;94546.50;5052608;28;20512;-80
2022/08/13 09:52:09;;;;;;;11.60;10.50;;;;;;;25.91;59.98;94540.16;5052662;28;20500;-79
2022/08/13 09:54:40;;;;;;;12.47;11.10;;;;;;;25.77;61.84;94542.28;5052325;28;20941;-79
2022/08/13 09:57:08;;;;;;;16.80;11.47;;;;;;;25.68;60.40;94543.66;5052325;28;20872;-79
2022/08/13 09:59:35;;;;;;;10.30;9.33;;;;;;;25.67;60.51;94544.69;5052520;28;20454;-79
2022/08/13 10:02:05;;;;;;;12.27;11.17;;;;;;;25.62;61.12;94545.38;5052378;28;20441;-79
2022/08/13 10:04:32;;;;;;;15.60;11.80;;;;;;;25.45;61.26;94551.66;5052380;28;20811;-79
2022/08/13 10:07:01;;;;;;;14.90;12.03;;;;;;;25.25;61.92;94547.41;5052396;28;20484;-79
2022/08/13 10:09:30;;;;;;;16.47;13.50;;;;;;;25.05;63.00;94541.47;5052521;28;20492;-79
2022/08/13 10:11:59;;;;;;;12.97;10.87;;;;;;;24.82;62.70;94541.34;5052427;28;20441;-79
2022/08/13 10:14:26;;;;;;;12.13;11.00;;;;;;;24.86;62.51;94542.53;5052162;28;20450;-79
2022/08/13 10:16:53;;;;;;;18.20;12.47;;;;;;;24.92;63.46;94538.97;5052248;28;20476;-79
2022/08/13 10:19:20;;;;;;;15.93;11.20;;;;;;;24.91;62.54;94527.41;5052267;28;20847;-79
2022/08/13 10:21:47;;;;;;;12.27;11.03;;;;;;;24.95;63.37;94530.44;5052339;28;20851;-80
2022/08/13 10:24:14;;;;;;;11.10;10.10;;;;;;;24.94;62.83;94534.19;5052289;28;20855;-78
2022/08/13 10:26:42;;;;;;;12.40;10.40;;;;;;;24.93;63.75;94533.34;5052021;28;20461;-79
2022/08/13 10:29:09;;;;;;;13.70;10.70;;;;;;;25.02;64.83;94531.19;5052056;28;20547;-80
2022/08/13 10:31:37;;;;;;;13.17;11.77;;;;;;;25.09;65.58;94536.47;5052015;28;20472;-81
2022/08/13 10:34:04;;;;;;;13.00;11.60;;;;;;;25.03;66.83;94540.88;5051978;28;20452;-81
2022/08/13 10:36:33;;;;;;;19.37;11.47;;;;;;;24.95;68.06;94541.19;5051930;28;20461;-81
2022/08/13 10:39:00;;;;;;;15.47;11.93;;;;;;;24.79;68.83;94533.75;5051883;28;20445;-80
2022/08/13 10:41:27;;;;;;;13.60;12.30;;;;;;;24.73;69.10;94522.06;5052097;28;20453;-81
2022/08/13 10:43:59;;;;;;;13.53;12.00;;;;;;;24.66;68.44;94532.88;5051962;28;20468;-81
2022/08/13 10:46:26;;;;;;;12.47;11.20;;;;;;;24.54;69.17;94529.28;5051572;28;20551;-81
2022/08/13 10:48:55;;;;;;;11.63;10.73;;;;;;;24.35;68.28;94533.06;5052032;28;20452;-78
2022/08/13 10:51:22;;;;;;;10.37;9.47;;;;;;;24.33;68.44;94527.91;5051911;28;20445;-77
2022/08/13 10:54:01;;;;;;;11.33;10.10;;;;;;;24.38;68.59;94540.66;5033110;28;20461;-80
2022/08/13 10:56:30;;;;;;;11.40;10.40;;;;;;;24.39;69.34;94539.59;5051547;28;20457;-80
2022/08/13 10:59:01;;;;;;;11.07;9.97;;;;;;;24.41;68.58;94529.47;5051969;28;20488;-79
2022/08/13 11:01:28;;;;;;;12.30;11.03;;;;;;;24.51;68.96;94535.13;5051907;28;20438;-79
2022/08/13 11:03:57;;;;;;;10.73;9.63;;;;;;;24.59;68.66;94532.16;5051399;28;20449;-80
2022/08/13 11:06:26;;;;;;;11.03;9.47;;;;;;;24.66;67.87;94542.78;5051607;28;20450;-80
2022/08/13 11:08:54;;;;;;;10.73;8.97;;;;;;;24.65;66.45;94536.59;5051680;28;20453;-80
2022/08/13 11:11:22;;;;;;;11.47;9.27;;;;;;;24.59;65.75;94537.53;5051513;28;20478;-80
2022/08/13 11:13:49;;;;;;;13.27;9.43;;;;;;;24.54;65.94;94534.66;5052009;28;20441;-79
2022/08/13 11:19:11;;;;;;;10.77;9.67;;;;;;;24.51;67.66;94523.56;5053792;28;20421;-80
2022/08/13 11:21:38;;;;;;;9.80;8.80;;;;;;;24.60;67.37;94520.38;5055306;28;20453;-79
2022/08/13 11:24:05;;;;;;;10.00;9.00;;;;;;;24.69;66.31;94515.50;5055573;28;20430;-80
2022/08/13 11:26:32;;;;;;;11.30;10.20;;;;;;;24.80;66.12;94511.22;5020457;28;20886;-80
2022/08/13 11:28:59;;;;;;;9.23;8.33;;;;;;;24.89;65.48;94515.25;5055359;28;20457;-80
2022/08/13 11:31:27;;;;;;;9.00;8.10;;;;;;;24.99;65.60;94511.00;5055371;28;21014;-81
2022/08/13 11:33:54;;;;;;;9.53;8.63;;;;;;;25.07;65.90;94507.16;5019933;28;20449;-80
2022/08/13 11:36:21;;;;;;;9.80;8.80;;;;;;;25.12;63.96;94511.84;5055292;28;20445;-80
2022/08/13 11:38:48;;;;;;;9.10;8.20;;;;;;;25.16;64.43;94511.19;5055077;28;20944;-80
2022/08/13 11:41:15;;;;;;;9.80;8.93;;;;;;;25.22;63.92;94514.81;5055291;28;20450;-80
2022/08/13 11:43:42;;;;;;;9.80;8.90;;;;;;;25.24;64.60;94512.72;5054965;28;20464;-80
2022/08/13 11:46:09;;;;;;;10.37;8.53;;;;;;;25.29;64.49;94510.97;5054978;28;20456;-80
2022/08/13 11:48:38;;;;;;;8.63;7.80;;;;;;;25.24;63.95;94521.59;5055299;28;20438;-80
2022/08/13 11:51:05;;;;;;;10.23;9.33;;;;;;;25.14;63.03;94510.56;5054984;28;20487;-79
2022/08/13 11:53:33;;;;;;;9.70;8.80;;;;;;;25.11;63.90;94516.38;5054822;28;20790;-79
2022/08/13 11:55:59;;;;;;;9.40;8.60;;;;;;;25.12;63.82;94519.91;5056948;28;20456;-79